createdAt,value
2023-01-18T00:01:06.237Z,20.05
2023-01-18T00:03:34.891Z,21.40
2023-01-18T00:06:03.732Z,22.38
2023-01-18T00:08:31.934Z,21.42
2023-01-18T00:11:06.066Z,21.85
2023-01-18T00:13:33.363Z,21.85
2023-01-18T00:16:07.861Z,21.08
2023-01-18T00:18:37.738Z,20.10
2023-01-18T00:21:06.601Z,20.88
2023-01-18T00:23:33.936Z,21.30
2023-01-18T00:26:01.506Z,19.42
2023-01-18T00:28:28.722Z,19.80
2023-01-18T00:30:55.852Z,20.33
2023-01-18T00:33:22.663Z,20.35
2023-01-18T00:35:59.581Z,21.23
2023-01-18T00:38:27.079Z,20.05
2023-01-18T00:40:53.873Z,20.67
2023-01-18T00:43:38.967Z,20.02
2023-01-18T00:46:10.914Z,19.02
2023-01-18T00:48:41.284Z,19.63
2023-01-18T00:51:09.843Z,18.38
2023-01-18T00:53:38.146Z,19.38
2023-01-18T00:56:09.400Z,18.88
2023-01-18T00:58:37.570Z,19.05
2023-01-18T01:01:06.000Z,18.00
2023-01-18T01:03:52.736Z,18.00
2023-01-18T01:06:42.789Z,18.47
2023-01-18T01:09:10.230Z,18.17
2023-01-18T01:11:36.954Z,16.40
2023-01-18T01:14:22.454Z,16.33
2023-01-18T01:17:07.790Z,13.80
2023-01-18T01:19:53.012Z,14.40
2023-01-18T01:22:38.213Z,13.27
2023-01-18T01:25:24.076Z,13.38
2023-01-18T01:27:51.956Z,13.52
2023-01-18T01:32:45.297Z,12.88
2023-01-18T01:35:11.994Z,14.07
2023-01-18T01:37:39.159Z,13.27
2023-01-18T01:40:06.423Z,14.07
2023-01-18T01:42:33.214Z,12.82
2023-01-18T01:44:59.920Z,13.80
2023-01-18T01:47:37.454Z,14.15
2023-01-18T01:50:11.882Z,14.20
2023-01-18T01:52:41.752Z,13.27
2023-01-18T01:55:22.888Z,14.20
2023-01-18T01:58:22.628Z,14.45
2023-01-18T02:00:49.709Z,15.35
2023-01-18T02:03:20.738Z,14.77
2023-01-18T02:05:50.989Z,15.57
2023-01-18T02:08:22.504Z,14.32
2023-01-18T02:10:50.967Z,14.82
2023-01-18T02:13:19.928Z,14.18
2023-01-18T02:16:02.087Z,15.02
2023-01-18T02:18:40.362Z,15.38
2023-01-18T02:21:19.022Z,14.48
2023-01-18T02:24:04.695Z,14.50
2023-01-18T02:27:28.268Z,14.25
2023-01-18T02:29:54.923Z,13.68
2023-01-18T02:32:50.489Z,15.02
2023-01-18T02:35:29.409Z,14.32
2023-01-18T02:38:17.613Z,14.10
2023-01-18T02:41:06.076Z,14.60
2023-01-18T02:43:52.519Z,13.95
2023-01-18T02:46:45.927Z,14.40
2023-01-18T02:49:20.911Z,14.77
2023-01-18T02:51:47.889Z,14.68
2023-01-18T02:54:24.403Z,14.25
2023-01-18T02:56:54.164Z,14.90
2023-01-18T02:59:34.222Z,14.35
2023-01-18T03:02:12.051Z,14.75
2023-01-18T03:04:54.346Z,14.50
2023-01-18T03:07:29.357Z,13.50
2023-01-18T03:09:58.057Z,14.00
2023-01-18T03:12:46.187Z,13.30
2023-01-18T03:15:15.879Z,14.27
2023-01-18T03:17:53.898Z,14.52
2023-01-18T03:20:33.031Z,15.10
2023-01-18T03:23:36.078Z,15.57
2023-01-18T03:26:05.663Z,15.68
2023-01-18T03:28:53.064Z,14.88
2023-01-18T03:31:50.956Z,16.73
2023-01-18T03:34:38.345Z,15.18
2023-01-18T03:37:10.548Z,15.45
2023-01-18T03:39:44.064Z,14.68
2023-01-18T03:42:30.425Z,16.45
2023-01-18T03:45:12.339Z,14.95
2023-01-18T03:47:39.380Z,15.98
2023-01-18T03:50:06.416Z,15.82
2023-01-18T03:52:41.938Z,16.35
2023-01-18T03:55:17.827Z,16.00
2023-01-18T03:58:03.152Z,15.80
2023-01-18T04:00:31.576Z,15.07
2023-01-18T04:02:59.411Z,14.40
2023-01-18T04:05:26.530Z,14.80
2023-01-18T04:07:53.276Z,15.38
2023-01-18T04:10:20.072Z,15.63
2023-01-18T04:12:46.936Z,16.05
2023-01-18T04:15:13.962Z,17.95
2023-01-18T04:17:40.727Z,18.65
2023-01-18T04:20:08.259Z,17.42
2023-01-18T04:22:35.076Z,17.42
2023-01-18T04:25:01.855Z,17.98
2023-01-18T04:27:28.641Z,17.23
2023-01-18T04:29:55.395Z,17.65
2023-01-18T04:32:22.128Z,17.60
2023-01-18T04:34:48.833Z,18.33
2023-01-18T04:37:15.571Z,17.35
2023-01-18T04:39:42.275Z,16.52
2023-01-18T04:42:09.015Z,16.73
2023-01-18T04:44:35.800Z,16.55
2023-01-18T04:47:02.538Z,16.75
2023-01-18T04:49:29.250Z,17.35
2023-01-18T04:51:55.984Z,16.60
2023-01-18T04:54:22.699Z,16.60
2023-01-18T04:56:49.449Z,16.23
2023-01-18T04:59:16.900Z,17.35
2023-01-18T05:01:43.869Z,17.40
2023-01-18T05:04:10.807Z,16.02
2023-01-18T05:06:37.568Z,16.07
2023-01-18T05:09:04.510Z,16.48
2023-01-18T05:11:31.306Z,16.83
2023-01-18T05:13:58.096Z,16.05
2023-01-18T05:16:25.188Z,15.35
2023-01-18T05:18:52.013Z,16.45
2023-01-18T05:21:18.875Z,15.00
2023-01-18T05:23:45.741Z,14.50
2023-01-18T05:26:17.375Z,15.70
2023-01-18T05:28:45.458Z,15.65
2023-01-18T05:31:13.562Z,15.02
2023-01-18T05:33:40.359Z,15.65
2023-01-18T05:36:07.792Z,14.63
2023-01-18T05:38:34.588Z,14.05
2023-01-18T05:41:01.676Z,15.82
2023-01-18T05:43:29.842Z,15.15
2023-01-18T05:45:57.229Z,14.45
2023-01-18T05:48:24.177Z,15.25
2023-01-18T05:50:51.090Z,14.73
2023-01-18T05:53:21.060Z,14.90
2023-01-18T05:55:56.158Z,14.80
2023-01-18T05:58:23.248Z,14.65
2023-01-18T06:00:49.987Z,14.85
2023-01-18T06:03:16.724Z,14.35
2023-01-18T06:05:43.605Z,15.88
2023-01-18T06:08:10.360Z,14.47
2023-01-18T06:10:37.056Z,14.85
2023-01-18T06:13:03.815Z,14.40
2023-01-18T06:15:30.486Z,16.08
2023-01-18T06:17:59.091Z,14.30
2023-01-18T06:20:30.249Z,14.30
2023-01-18T06:22:58.150Z,13.82
2023-01-18T06:25:26.713Z,14.70
2023-01-18T06:27:53.469Z,14.73
2023-01-18T06:30:20.632Z,14.38
2023-01-18T06:32:49.912Z,14.23
2023-01-18T06:35:16.757Z,14.02
2023-01-18T06:37:45.685Z,14.25
2023-01-18T06:40:13.206Z,14.60
2023-01-18T06:42:40.494Z,16.02
2023-01-18T06:45:07.974Z,13.63
2023-01-18T06:47:34.952Z,14.18
2023-01-18T06:50:01.781Z,14.23
2023-01-18T06:52:28.584Z,13.82
2023-01-18T06:54:55.359Z,47.83
2023-01-18T06:57:22.154Z,14.23
2023-01-18T06:59:48.908Z,21.70
2023-01-18T07:02:18.412Z,13.35
2023-01-18T07:04:45.581Z,13.48
2023-01-18T07:07:13.461Z,22.63
2023-01-18T07:12:06.938Z,14.23
2023-01-18T07:14:34.338Z,13.57
2023-01-18T07:17:01.095Z,13.75
2023-01-18T07:19:27.857Z,14.03
2023-01-18T07:21:54.595Z,12.38
2023-01-18T07:24:22.359Z,13.40
2023-01-18T07:26:49.223Z,13.93
2023-01-18T07:29:16.128Z,13.82
2023-01-18T07:31:43.020Z,13.77
2023-01-18T07:34:11.044Z,13.57
2023-01-18T07:39:10.136Z,15.10
2023-01-18T07:41:37.612Z,17.13
2023-01-18T07:44:05.615Z,17.90
2023-01-18T07:46:32.547Z,17.38
2023-01-18T07:49:02.348Z,15.90
2023-01-18T07:51:29.193Z,14.25
2023-01-18T07:53:56.160Z,14.20
2023-01-18T07:56:23.728Z,14.73
2023-01-18T07:58:50.759Z,12.93
2023-01-18T08:01:20.409Z,13.38
2023-01-18T08:03:48.866Z,13.00
2023-01-18T08:06:19.826Z,12.43
2023-01-18T08:08:46.652Z,12.43
2023-01-18T08:11:13.436Z,13.07
2023-01-18T08:13:40.264Z,11.25
2023-01-18T08:16:11.164Z,11.63
2023-01-18T08:18:38.184Z,12.38
2023-01-18T08:21:05.111Z,12.07
2023-01-18T08:23:31.818Z,11.00
2023-01-18T08:26:03.113Z,12.00
2023-01-18T08:28:30.307Z,11.60
2023-01-18T08:31:13.219Z,11.45
2023-01-18T08:33:45.991Z,10.68
2023-01-18T08:36:15.975Z,12.70
2023-01-18T08:38:43.421Z,12.95
2023-01-18T08:41:10.249Z,10.15
2023-01-18T08:43:37.200Z,11.43
2023-01-18T08:46:04.082Z,13.27
2023-01-18T08:48:30.844Z,8.70
2023-01-18T08:51:02.380Z,11.73
2023-01-18T08:53:30.775Z,14.00
2023-01-18T08:55:57.696Z,8.02
2023-01-18T08:58:24.823Z,12.53
2023-01-18T09:00:53.517Z,13.38
2023-01-18T09:03:22.833Z,21.15
2023-01-18T09:05:50.055Z,13.38
2023-01-18T09:08:17.993Z,13.07
2023-01-18T09:10:45.222Z,13.05
2023-01-18T09:13:12.027Z,14.60
2023-01-18T09:15:39.094Z,10.02
2023-01-18T09:18:07.671Z,16.20
2023-01-18T09:20:36.272Z,11.20
2023-01-18T09:23:10.256Z,27.10
2023-01-18T09:25:37.264Z,8.93
2023-01-18T09:28:05.086Z,7.87
2023-01-18T09:30:32.052Z,12.65
2023-01-18T09:32:59.100Z,9.10
2023-01-18T09:35:26.366Z,10.63
2023-01-18T09:37:54.651Z,12.00
2023-01-18T09:40:24.925Z,9.40
2023-01-18T09:42:53.374Z,9.95
2023-01-18T09:45:27.285Z,13.10
2023-01-18T09:48:01.526Z,7.13
2023-01-18T09:50:28.431Z,10.85
2023-01-18T09:53:19.582Z,9.35
2023-01-18T09:55:58.161Z,10.98
2023-01-18T09:58:43.006Z,6.68
2023-01-18T10:01:14.122Z,10.27
2023-01-18T10:03:43.683Z,10.40
2023-01-18T10:06:19.727Z,8.88
2023-01-18T10:09:05.185Z,9.63
2023-01-18T10:11:47.303Z,10.52
2023-01-18T10:14:42.502Z,8.35
2023-01-18T10:17:14.143Z,8.45
2023-01-18T10:19:41.354Z,6.18
2023-01-18T10:22:33.006Z,11.10
2023-01-18T10:25:13.289Z,7.63
2023-01-18T10:27:51.992Z,4.75
2023-01-18T10:30:56.056Z,4.50
2023-01-18T10:33:27.712Z,6.07
2023-01-18T10:35:59.246Z,4.78
2023-01-18T10:38:28.600Z,7.78
2023-01-18T10:40:58.964Z,6.88
2023-01-18T10:43:27.783Z,6.20
2023-01-18T10:45:55.800Z,8.48
2023-01-18T10:50:55.600Z,5.97
2023-01-18T10:53:32.133Z,5.20
2023-01-18T10:56:12.695Z,5.10
2023-01-18T10:58:52.198Z,6.53
2023-01-18T11:01:33.976Z,5.70
2023-01-18T11:04:07.532Z,6.72
2023-01-18T11:06:52.329Z,5.18
2023-01-18T11:09:48.635Z,4.93
2023-01-18T11:12:37.522Z,3.60
2023-01-18T11:15:13.420Z,5.50
2023-01-18T11:18:06.146Z,5.97
2023-01-18T11:20:35.721Z,6.32
2023-01-18T11:23:14.834Z,4.13
2023-01-18T11:25:53.688Z,2.63
2023-01-18T11:28:24.535Z,4.88
2023-01-18T11:31:08.477Z,4.47
2023-01-18T11:33:40.374Z,7.22
2023-01-18T11:36:07.563Z,4.97
2023-01-18T11:38:35.079Z,4.95
2023-01-18T11:41:03.239Z,3.20
2023-01-18T11:43:32.066Z,4.22
2023-01-18T11:46:05.979Z,3.33
2023-01-18T11:48:38.986Z,4.18
2023-01-18T11:51:17.351Z,2.88
2023-01-18T11:53:48.949Z,1.98
2023-01-18T11:56:27.838Z,3.72
2023-01-18T11:58:55.369Z,3.25
2023-01-18T12:01:48.380Z,3.13
2023-01-18T12:04:52.614Z,3.33
2023-01-18T12:07:25.203Z,1.73
2023-01-18T12:09:55.607Z,2.78
2023-01-18T12:12:58.955Z,2.17
2023-01-18T12:15:46.726Z,2.28
2023-01-18T12:18:38.458Z,2.70
2023-01-18T12:21:13.388Z,1.40
2023-01-18T12:23:58.607Z,4.80
2023-01-18T12:26:52.320Z,2.72
2023-01-18T12:29:31.091Z,2.50
2023-01-18T12:32:26.546Z,2.08
2023-01-18T12:35:42.362Z,2.50
2023-01-18T12:38:24.804Z,1.92
2023-01-18T12:40:56.920Z,2.03
2023-01-18T12:44:05.427Z,2.15
2023-01-18T12:46:47.943Z,2.60
2023-01-18T12:49:22.830Z,2.33
2023-01-18T12:52:03.119Z,2.53
2023-01-18T12:54:47.532Z,1.95
2023-01-18T12:57:17.076Z,1.98
2023-01-18T12:59:46.746Z,1.85
2023-01-18T13:02:35.645Z,1.92
2023-01-18T13:05:15.525Z,1.75
2023-01-18T13:07:48.101Z,2.72
2023-01-18T13:10:28.815Z,2.40
2023-01-18T13:12:57.293Z,2.53
2023-01-18T13:15:58.839Z,2.17
2023-01-18T13:18:45.880Z,1.98
2023-01-18T13:21:20.617Z,2.50
2023-01-18T13:24:08.736Z,2.22
2023-01-18T13:26:36.106Z,2.38
2023-01-18T13:29:22.682Z,2.15
2023-01-18T13:31:50.774Z,2.45
2023-01-18T13:34:31.739Z,1.90
2023-01-18T13:37:14.048Z,2.60
2023-01-18T13:39:48.082Z,2.10
2023-01-18T13:42:20.794Z,2.25
2023-01-18T13:44:50.136Z,2.08
2023-01-18T13:47:35.501Z,1.50
2023-01-18T13:50:02.497Z,2.33
2023-01-18T13:52:35.640Z,2.13
2023-01-18T13:55:24.023Z,1.67
2023-01-18T13:57:55.539Z,2.50
2023-01-18T14:00:24.688Z,1.85
2023-01-18T14:02:56.743Z,2.45
2023-01-18T14:05:26.787Z,1.95
2023-01-18T14:07:57.911Z,2.33
2023-01-18T14:10:26.405Z,2.05
2023-01-18T14:12:57.038Z,2.30
2023-01-18T14:15:40.198Z,1.77
2023-01-18T14:18:21.720Z,2.17
2023-01-18T14:21:26.125Z,2.40
2023-01-18T14:24:24.621Z,2.38
2023-01-18T14:26:54.786Z,1.98
2023-01-18T14:29:49.139Z,1.83
2023-01-18T14:32:23.091Z,3.47
2023-01-18T14:34:59.124Z,2.45
2023-01-18T14:37:28.602Z,1.75
2023-01-18T14:40:07.636Z,3.58
2023-01-18T14:42:35.332Z,2.80
2023-01-18T14:50:01.464Z,1.38
2023-01-18T14:52:32.488Z,2.72
2023-01-18T14:54:59.303Z,3.05
2023-01-18T14:57:26.165Z,2.40
2023-01-18T15:00:04.140Z,4.63
2023-01-18T15:02:38.109Z,11.30
2023-01-18T15:05:17.861Z,2.75
2023-01-18T15:07:55.293Z,3.17
2023-01-18T15:12:55.417Z,3.13
2023-01-18T15:15:40.522Z,3.20
2023-01-18T15:18:10.972Z,2.50
2023-01-18T15:20:48.392Z,2.58
2023-01-18T15:23:15.259Z,2.38
2023-01-18T15:25:41.996Z,2.83
2023-01-18T15:28:23.004Z,2.95
2023-01-18T15:30:54.175Z,2.97
2023-01-18T15:33:23.452Z,2.92
2023-01-18T15:35:55.842Z,4.60
2023-01-18T15:38:22.658Z,3.42
2023-01-18T15:41:01.436Z,3.78
2023-01-18T15:43:33.468Z,5.25
2023-01-18T15:46:01.104Z,4.65
2023-01-18T15:48:33.868Z,4.45
2023-01-18T15:51:07.878Z,3.63
2023-01-18T15:53:42.712Z,4.78
2023-01-18T15:56:17.146Z,5.03
2023-01-18T15:58:50.220Z,3.45
2023-01-18T16:01:20.967Z,3.83
2023-01-18T16:03:47.718Z,3.42
2023-01-18T16:09:10.562Z,4.72
2023-01-18T16:11:41.716Z,5.10
2023-01-18T16:14:35.083Z,4.28
2023-01-18T16:17:24.153Z,3.47
2023-01-18T16:20:00.116Z,3.95
2023-01-18T16:22:35.416Z,4.15
2023-01-18T16:25:08.451Z,4.55
2023-01-18T16:27:48.026Z,3.60
2023-01-18T16:30:24.901Z,5.07
2023-01-18T16:32:51.645Z,2.55
2023-01-18T16:35:21.583Z,10.60
2023-01-18T16:37:49.781Z,3.70
2023-01-18T16:40:19.747Z,4.38
2023-01-18T16:43:13.026Z,4.53
2023-01-18T16:45:40.355Z,7.70
2023-01-18T16:48:14.134Z,4.22
2023-01-18T16:50:40.937Z,3.95
2023-01-18T16:53:08.514Z,4.47
2023-01-18T16:55:35.406Z,4.25
2023-01-18T16:58:02.333Z,4.45
2023-01-18T17:00:40.524Z,4.50
2023-01-18T17:03:07.386Z,7.72
2023-01-18T17:05:34.117Z,4.57
2023-01-18T17:08:02.092Z,3.55
2023-01-18T17:10:37.043Z,3.25
2023-01-18T17:13:03.844Z,5.38
2023-01-18T17:15:32.459Z,4.15
2023-01-18T17:17:59.193Z,3.95
2023-01-18T17:20:28.720Z,4.15
2023-01-18T17:22:56.138Z,4.07
2023-01-18T17:25:24.045Z,4.57
2023-01-18T17:27:51.300Z,2.33
2023-01-18T17:30:21.966Z,3.38
2023-01-18T17:32:50.491Z,3.88
2023-01-18T17:35:24.236Z,4.35
2023-01-18T17:38:00.995Z,2.78
2023-01-18T17:40:40.001Z,3.90
2023-01-18T17:43:13.622Z,4.90
2023-01-18T17:45:42.179Z,4.40
2023-01-18T17:48:10.723Z,2.90
2023-01-18T17:50:39.883Z,3.15
2023-01-18T17:53:07.629Z,3.33
2023-01-18T17:55:35.221Z,3.78
2023-01-18T17:58:02.588Z,2.92
2023-01-18T18:00:29.454Z,4.13
2023-01-18T18:02:57.393Z,7.50
2023-01-18T18:07:51.110Z,5.05
2023-01-18T18:10:18.392Z,6.38
2023-01-18T18:12:45.412Z,6.60
2023-01-18T18:15:13.422Z,6.63
2023-01-18T18:20:10.806Z,6.60
2023-01-18T18:22:38.121Z,5.25
2023-01-18T18:25:06.612Z,4.20
2023-01-18T18:27:45.399Z,5.68
2023-01-18T18:30:13.210Z,3.40
2023-01-18T18:32:40.130Z,5.65
2023-01-18T18:35:22.970Z,7.73
2023-01-18T18:37:51.079Z,4.68
2023-01-18T18:40:18.243Z,6.07
2023-01-18T18:43:00.391Z,6.95
2023-01-18T18:45:28.346Z,14.32
2023-01-18T18:47:55.316Z,6.00
2023-01-18T18:50:22.158Z,6.68
2023-01-18T18:52:48.948Z,4.82
2023-01-18T18:55:16.197Z,4.03
2023-01-18T18:57:43.292Z,5.15
2023-01-18T19:00:10.734Z,7.50
2023-01-18T19:02:37.655Z,8.80
2023-01-18T19:05:07.916Z,7.97
2023-01-18T19:07:37.854Z,4.63
2023-01-18T19:10:06.171Z,3.35
2023-01-18T19:12:33.218Z,16.80
2023-01-18T19:15:00.120Z,3.97
2023-01-18T19:17:30.818Z,4.15
2023-01-18T19:19:58.484Z,4.97
2023-01-18T19:22:25.544Z,3.22
2023-01-18T19:24:52.341Z,4.63
2023-01-18T19:27:24.540Z,4.90
2023-01-18T19:29:53.127Z,15.50
2023-01-18T19:32:20.396Z,6.22
2023-01-18T19:34:47.114Z,6.23
2023-01-18T19:37:13.874Z,7.18
2023-01-18T19:39:40.725Z,5.07
2023-01-18T19:42:08.953Z,5.18
2023-01-18T19:44:35.752Z,4.70
2023-01-18T19:47:03.427Z,5.47
2023-01-18T19:49:37.650Z,3.13
2023-01-18T19:52:07.439Z,5.00
2023-01-18T19:54:34.359Z,8.88
2023-01-18T19:57:01.217Z,4.68
2023-01-18T19:59:28.104Z,2.70
2023-01-18T20:01:58.630Z,4.95
2023-01-18T20:04:26.039Z,6.18
2023-01-18T20:06:52.957Z,5.18
2023-01-18T20:09:22.271Z,4.18
2023-01-18T20:11:55.152Z,6.80
2023-01-18T20:14:26.211Z,4.38
2023-01-18T20:17:04.738Z,10.23
2023-01-18T20:19:31.561Z,6.45
2023-01-18T20:22:00.867Z,6.80
2023-01-18T20:24:27.704Z,4.28
2023-01-18T20:26:56.422Z,6.13
2023-01-18T20:29:24.474Z,4.40
2023-01-18T20:31:51.512Z,6.20
2023-01-18T20:36:46.617Z,7.80
2023-01-18T20:39:13.419Z,7.55
2023-01-18T20:41:40.397Z,7.25
2023-01-18T20:44:07.925Z,8.43
2023-01-18T20:46:34.880Z,7.03
2023-01-18T20:49:04.740Z,7.27
2023-01-18T20:51:32.482Z,9.77
2023-01-18T20:53:59.753Z,7.00
2023-01-18T20:56:29.559Z,7.43
2023-01-18T20:59:00.299Z,9.00
2023-01-18T21:01:32.532Z,7.13
2023-01-18T21:04:00.991Z,5.25
2023-01-18T21:06:28.098Z,6.63
2023-01-18T21:08:56.677Z,7.63
2023-01-18T21:11:25.435Z,3.97
2023-01-18T21:13:56.872Z,6.93
2023-01-18T21:16:24.055Z,4.90
2023-01-18T21:18:56.118Z,6.57
2023-01-18T21:21:23.967Z,7.57
2023-01-18T21:23:50.901Z,7.82
2023-01-18T21:26:17.720Z,7.70
2023-01-18T21:28:44.598Z,6.57
2023-01-18T21:31:11.412Z,7.32
2023-01-18T21:33:38.478Z,5.65
2023-01-18T21:36:07.575Z,9.23
2023-01-18T21:38:42.135Z,9.70
2023-01-18T21:41:29.506Z,8.43
2023-01-18T21:44:14.688Z,3.75
2023-01-18T21:46:49.093Z,6.53
2023-01-18T21:49:47.460Z,5.40
2023-01-18T21:52:39.179Z,8.73
2023-01-18T21:55:06.109Z,8.30
2023-01-18T21:57:32.847Z,8.93
2023-01-18T21:59:59.528Z,10.80
2023-01-18T22:02:26.459Z,8.38
2023-01-18T22:05:00.132Z,10.93
2023-01-18T22:07:31.294Z,6.18
2023-01-18T22:10:05.030Z,8.73
2023-01-18T22:12:35.037Z,18.27
2023-01-18T22:15:03.014Z,11.88
2023-01-18T22:17:29.914Z,18.55
2023-01-18T22:19:56.686Z,10.43
2023-01-18T22:22:23.504Z,10.68
2023-01-18T22:24:50.210Z,9.38
2023-01-18T22:27:16.911Z,9.20
2023-01-18T22:29:43.583Z,10.23
2023-01-18T22:32:10.326Z,12.32
2023-01-18T22:34:37.048Z,8.25
2023-01-18T22:37:03.959Z,9.35
2023-01-18T22:39:30.647Z,11.48
2023-01-18T22:41:57.651Z,11.93
2023-01-18T22:44:24.405Z,8.60
2023-01-18T22:46:51.302Z,11.85
2023-01-18T22:49:20.605Z,13.45
2023-01-18T22:51:47.408Z,12.25
2023-01-18T22:54:14.928Z,13.02
2023-01-18T22:56:41.688Z,12.95
2023-01-18T22:59:08.767Z,11.48
2023-01-18T23:01:35.527Z,12.35
2023-01-18T23:04:04.292Z,9.45
2023-01-18T23:06:48.092Z,8.25
2023-01-18T23:09:17.550Z,10.73
2023-01-18T23:11:44.950Z,11.35
2023-01-18T23:14:30.225Z,10.30
2023-01-18T23:17:15.416Z,9.18
2023-01-18T23:19:42.147Z,9.35
2023-01-18T23:22:08.932Z,8.82
2023-01-18T23:24:37.361Z,7.80
2023-01-18T23:27:06.236Z,9.00
2023-01-18T23:29:33.527Z,9.77
2023-01-18T23:32:01.044Z,8.98
2023-01-18T23:34:28.003Z,9.18
2023-01-18T23:36:55.111Z,7.90
2023-01-18T23:39:40.803Z,9.20
2023-01-18T23:42:26.330Z,9.82
2023-01-18T23:45:11.662Z,9.80
2023-01-18T23:47:56.894Z,6.63
2023-01-18T23:50:42.113Z,10.35
2023-01-18T23:53:31.919Z,8.95
2023-01-18T23:55:59.475Z,10.20
2023-01-18T23:58:26.431Z,6.68
